createdAt,value
2023-05-12T11:18:20.590Z,2.7333
2023-05-12T11:19:22.366Z,4.0308
2023-05-12T11:20:24.322Z,9.4846
2023-05-12T11:21:26.224Z,5.4923
2023-05-12T11:22:28.253Z,3.2692
2023-05-12T11:46:50.653Z,4.2250
2023-05-12T11:47:52.566Z,5.1000
2023-05-12T11:48:54.447Z,4.2615
2023-05-12T11:49:56.424Z,5.7308
2023-05-12T11:50:58.289Z,4.8846
2023-05-12T11:52:00.190Z,6.3154
2023-05-12T11:53:02.129Z,4.5692
2023-05-12T11:54:04.041Z,5.9769
2023-05-12T11:55:06.189Z,5.4231
2023-05-12T11:56:07.897Z,5.2923
2023-05-12T11:57:09.800Z,5.6769
2023-05-12T11:58:11.725Z,5.2615
2023-05-12T11:59:13.655Z,5.1154
2023-05-12T12:00:15.574Z,6.4308
2023-05-12T12:01:17.600Z,5.0538
2023-05-12T12:02:19.466Z,6.4308
2023-05-12T12:03:21.481Z,6.0692
2023-05-12T12:04:23.285Z,4.9308
2023-05-12T12:05:25.177Z,5.7769
2023-05-12T12:06:27.159Z,5.6923
2023-05-12T12:07:29.000Z,4.3000
2023-05-12T12:08:30.941Z,6.2308
2023-05-12T12:09:32.850Z,5.8692
2023-05-12T12:10:34.751Z,4.4923
2023-05-12T12:11:36.667Z,4.8462
2023-05-12T12:12:38.752Z,5.4077
2023-05-12T12:13:40.506Z,4.9077
2023-05-12T12:14:42.467Z,4.5385
2023-05-12T12:15:44.376Z,4.0000
2023-05-12T12:16:46.270Z,4.8923
2023-05-12T12:17:48.475Z,4.6615
2023-05-12T12:18:50.139Z,4.0538
2023-05-12T12:19:52.020Z,5.4308
2023-05-12T12:20:53.951Z,6.1231
2023-05-12T12:21:55.866Z,7.7769
2023-05-12T12:22:57.782Z,4.8615
2023-05-12T12:23:59.808Z,5.5000
2023-05-12T12:25:01.605Z,5.5000
2023-05-12T12:26:03.544Z,6.4000
2023-05-12T12:27:05.454Z,6.5077
2023-05-12T12:28:07.369Z,5.8692
2023-05-12T12:29:09.291Z,6.0462
2023-05-12T12:30:11.433Z,5.0615
2023-05-12T12:31:13.113Z,6.4385
2023-05-12T12:32:15.056Z,4.5000
2023-05-12T12:33:19.649Z,5.1462
2023-05-12T12:34:18.868Z,5.4308
2023-05-12T12:35:21.019Z,6.6154
2023-05-12T12:36:22.846Z,5.4077
2023-05-12T12:37:24.634Z,6.2692
2023-05-12T12:38:26.546Z,6.2000
2023-05-12T12:39:28.480Z,5.4462
2023-05-12T12:40:30.392Z,4.5538
2023-05-12T12:41:32.305Z,4.9308
2023-05-12T12:42:34.369Z,5.0846
2023-05-12T12:43:36.144Z,3.9538
2023-05-12T12:44:38.064Z,5.1000
2023-05-12T12:45:39.996Z,4.4769
2023-05-12T12:46:41.957Z,5.1846
2023-05-12T12:47:43.869Z,5.7154
2023-05-12T12:48:45.860Z,5.5385
2023-05-12T12:49:47.665Z,4.9538
2023-05-12T12:50:49.592Z,4.8692
2023-05-12T12:51:51.510Z,4.9538
2023-05-12T12:52:53.440Z,6.0769
2023-05-12T12:53:55.349Z,4.1462
2023-05-12T12:54:57.365Z,4.3385
2023-05-12T12:55:59.173Z,3.2538
2023-05-12T12:57:01.105Z,4.2385
2023-05-12T12:58:03.011Z,3.9462
2023-05-12T12:59:04.947Z,4.0769
2023-05-12T13:00:06.970Z,3.8308
2023-05-12T13:01:08.808Z,4.0462
2023-05-12T13:02:10.723Z,3.3462
2023-05-12T13:03:12.638Z,3.1308
2023-05-12T13:04:14.519Z,3.6308
2023-05-12T13:05:16.515Z,4.0846
2023-05-12T13:06:18.474Z,5.7385
2023-05-12T13:07:20.275Z,4.5692
2023-05-12T13:08:22.204Z,5.0154
2023-05-12T13:09:24.122Z,3.7923
2023-05-12T13:10:26.048Z,3.5615
2023-05-12T13:11:28.068Z,3.6154
2023-05-12T13:12:29.873Z,3.6692
2023-05-12T13:13:31.781Z,4.2000
2023-05-12T13:14:33.706Z,4.6538
2023-05-12T13:15:35.621Z,2.8308
2023-05-12T13:16:37.557Z,2.7385
2023-05-12T13:17:39.588Z,2.7231
2023-05-12T13:18:41.425Z,2.5538
2023-05-12T13:19:43.302Z,3.0615
2023-05-12T13:20:45.233Z,2.8538
2023-05-12T13:21:47.137Z,3.0538
2023-05-12T13:22:49.062Z,2.5154
2023-05-12T13:23:51.127Z,3.4077
2023-05-12T13:24:52.899Z,3.1154
2023-05-12T13:25:54.800Z,2.5462
2023-05-12T13:26:56.745Z,2.6308
2023-05-12T13:27:58.640Z,2.3846
2023-05-12T13:29:00.567Z,2.6308
2023-05-12T13:30:02.597Z,2.7538
2023-05-12T13:31:04.438Z,3.2923
2023-05-12T13:32:06.323Z,3.0615
2023-05-12T13:33:08.307Z,2.9308
2023-05-12T13:34:10.169Z,3.0000
2023-05-12T13:35:12.071Z,3.5231
2023-05-12T13:36:14.104Z,2.3615
2023-05-12T13:37:15.922Z,2.8308
2023-05-12T13:38:17.831Z,2.8615
2023-05-12T13:39:19.911Z,2.8615
2023-05-12T13:40:21.659Z,3.8538
2023-05-12T13:41:23.626Z,3.2154
2023-05-12T13:42:25.608Z,3.2308
2023-05-12T13:43:27.431Z,2.7769
2023-05-12T13:44:29.332Z,3.2462
2023-05-12T13:45:31.270Z,3.7615
2023-05-12T13:46:33.225Z,3.4538
2023-05-12T13:47:35.137Z,3.4000
2023-05-12T13:48:37.159Z,3.4154
2023-05-12T13:49:38.929Z,3.6385
2023-05-12T13:50:40.859Z,4.3385
2023-05-12T13:51:42.768Z,3.6000
2023-05-12T13:52:44.669Z,3.0769
2023-05-12T13:53:46.607Z,3.1923
2023-05-12T13:54:48.625Z,3.1308
2023-05-12T13:55:50.500Z,5.2615
2023-05-12T13:56:52.335Z,4.4923
2023-05-12T13:57:54.250Z,5.3615
2023-05-12T13:58:56.191Z,3.3462
2023-05-12T13:59:58.219Z,3.4308
2023-05-12T14:01:00.007Z,4.8077
2023-05-12T14:02:02.099Z,3.8231
2023-05-12T14:03:03.904Z,3.5615
2023-05-12T14:04:05.781Z,2.9846
2023-05-12T14:05:07.797Z,3.6615
2023-05-12T14:06:09.731Z,3.6769
2023-05-12T14:07:11.525Z,3.5385
2023-05-12T14:08:13.426Z,3.3538
2023-05-12T14:09:15.372Z,2.8231
2023-05-12T14:10:17.272Z,3.6538
2023-05-12T14:11:19.266Z,2.5692
2023-05-12T14:12:21.739Z,3.1846
2023-05-12T14:13:23.021Z,2.6308
2023-05-12T14:14:24.962Z,2.4769
2023-05-12T14:15:40.103Z,3.7923
2023-05-12T14:16:28.804Z,3.5923
2023-05-12T14:17:30.863Z,2.9154
2023-05-12T14:18:32.661Z,2.1692
2023-05-12T14:19:34.547Z,2.5308
2023-05-12T14:20:36.451Z,2.4538
2023-05-12T14:21:38.392Z,2.8615
2023-05-12T14:22:40.307Z,2.0846
2023-05-12T14:23:42.335Z,2.3231
2023-05-12T14:24:44.127Z,3.5923
2023-05-12T14:25:46.070Z,3.1077
2023-05-12T14:26:48.048Z,2.4077
2023-05-12T14:27:50.123Z,2.0923
2023-05-12T14:28:51.820Z,3.1846
2023-05-12T14:29:53.898Z,2.5462
2023-05-12T14:30:55.673Z,2.0923
2023-05-12T14:31:57.638Z,2.0231
2023-05-12T14:32:59.528Z,1.5000
2023-05-12T14:34:01.436Z,1.5846
2023-05-12T14:35:03.335Z,1.3692
2023-05-12T14:36:07.831Z,1.7923
2023-05-12T14:37:07.283Z,1.9846
2023-05-12T14:38:09.106Z,1.6308
2023-05-12T14:39:11.028Z,2.1000
2023-05-12T14:40:12.924Z,1.8154
2023-05-12T14:41:14.858Z,1.5923
2023-05-12T14:42:16.870Z,1.1538
2023-05-12T14:43:18.700Z,1.2615
2023-05-12T14:44:20.625Z,1.4154
2023-05-12T14:45:22.848Z,1.3077
2023-05-12T14:46:24.472Z,1.3077
2023-05-12T14:47:26.383Z,1.3308
2023-05-12T14:48:28.385Z,1.6538
2023-05-12T14:49:30.241Z,1.4000
2023-05-12T14:50:32.135Z,1.5462
2023-05-12T14:51:34.042Z,1.2385
2023-05-12T14:52:35.956Z,1.3077
2023-05-12T14:53:37.976Z,1.1385
2023-05-12T14:54:39.812Z,1.3846
2023-05-12T14:55:41.728Z,1.3846
2023-05-12T14:56:43.671Z,1.2615
2023-05-12T14:57:45.552Z,1.2846
2023-05-12T14:58:47.474Z,1.2385
2023-05-12T14:59:49.503Z,1.2615
2023-05-12T15:00:51.354Z,1.4769
2023-05-12T15:01:53.247Z,1.2538
2023-05-12T15:02:55.233Z,1.1538
2023-05-12T15:03:57.068Z,1.6462
2023-05-12T15:04:59.097Z,1.6231
2023-05-12T15:07:02.845Z,1.5154
2023-05-12T15:08:04.761Z,1.3615
2023-05-12T15:09:06.681Z,1.2692
2023-05-12T15:10:08.599Z,1.2538
2023-05-12T15:11:10.605Z,1.3692
2023-05-12T15:12:12.467Z,1.1077
2023-05-12T15:13:14.365Z,1.1154
2023-05-12T15:14:16.291Z,1.2462
2023-05-12T15:15:18.355Z,1.2077
2023-05-12T15:16:20.265Z,1.3538
2023-05-12T15:17:22.057Z,1.1538
2023-05-12T15:18:24.058Z,1.3231
2023-05-12T15:19:25.904Z,1.2077
2023-05-12T15:20:27.814Z,1.2462
2023-05-12T15:21:29.744Z,1.2231
2023-05-12T15:22:31.669Z,1.2846
2023-05-12T15:23:33.576Z,1.2000
2023-05-12T15:24:35.482Z,1.3846
2023-05-12T15:25:37.409Z,1.3077
2023-05-12T15:26:40.249Z,1.1615
2023-05-12T15:27:41.254Z,1.2538
2023-05-12T15:28:43.178Z,1.1923
2023-05-12T15:29:45.079Z,1.2769
2023-05-12T15:30:47.025Z,1.0846
2023-05-12T15:31:49.028Z,1.0462
2023-05-12T15:32:50.881Z,1.1077
2023-05-12T15:33:52.794Z,1.1231
2023-05-12T15:34:54.762Z,1.0000
2023-05-12T15:35:56.604Z,1.1308
2023-05-12T15:36:58.541Z,1.2000
2023-05-12T15:38:00.466Z,1.2154
2023-05-12T15:39:02.427Z,1.0769
2023-05-12T15:40:04.313Z,1.0538
2023-05-12T15:41:06.216Z,1.0308
2023-05-12T15:42:08.539Z,1.0615
2023-05-12T15:43:10.054Z,1.1769
2023-05-12T15:44:11.969Z,1.1077
2023-05-12T15:45:13.899Z,1.1462
2023-05-12T15:46:15.835Z,1.1154
2023-05-12T15:47:17.721Z,1.0769
2023-05-12T15:48:19.691Z,1.1308
2023-05-12T15:49:21.639Z,1.1923
2023-05-12T15:50:23.550Z,1.1000
2023-05-12T15:51:25.485Z,1.1231
2023-05-12T15:52:27.405Z,1.1846
2023-05-12T15:53:29.322Z,1.0692
2023-05-12T15:54:31.264Z,1.1308
2023-05-12T15:55:33.169Z,1.1000
2023-05-12T15:56:35.087Z,1.2154
2023-05-12T15:57:36.998Z,1.3077
2023-05-12T15:58:38.933Z,0.9923
2023-05-12T15:59:40.859Z,1.2154
2023-05-12T16:00:42.795Z,1.2000
2023-05-12T16:01:44.683Z,1.3462
2023-05-12T16:02:46.670Z,1.0769
2023-05-12T16:03:48.575Z,1.1154
2023-05-12T16:04:50.462Z,1.2385
2023-05-12T16:05:52.361Z,1.2231
2023-05-12T16:06:54.359Z,1.0462
2023-05-12T16:07:56.188Z,1.2538
2023-05-12T16:08:58.125Z,1.1231
2023-05-12T16:10:00.065Z,1.4154
2023-05-12T16:11:01.990Z,1.3000
2023-05-12T16:12:03.888Z,1.4077
2023-05-12T16:13:05.789Z,1.3692
2023-05-12T16:14:07.711Z,1.2846
2023-05-12T16:15:09.659Z,1.2769
2023-05-12T16:16:11.572Z,1.3846
2023-05-12T16:17:13.491Z,1.2385
2023-05-12T16:18:15.450Z,1.0692
2023-05-12T16:19:17.314Z,1.2769
2023-05-12T16:20:19.248Z,1.1462
2023-05-12T16:21:21.170Z,1.1462
2023-05-12T16:22:23.090Z,1.1846
2023-05-12T16:23:25.001Z,1.0846
2023-05-12T16:24:26.911Z,1.1385
2023-05-12T16:25:28.844Z,1.0615
2023-05-12T16:26:30.768Z,1.1000
2023-05-12T16:27:32.681Z,1.0615
2023-05-12T16:28:34.609Z,1.1000
2023-05-12T16:29:36.534Z,1.2000
2023-05-12T16:30:38.458Z,1.3769
2023-05-12T16:31:40.402Z,1.2846
2023-05-12T16:32:42.334Z,1.2538
2023-05-12T16:33:44.217Z,1.1846
2023-05-12T16:34:46.124Z,1.1923
2023-05-12T16:35:48.044Z,1.2077
2023-05-12T16:36:49.964Z,1.2462
2023-05-12T16:37:51.898Z,1.2769
2023-05-12T16:38:53.836Z,1.1692
2023-05-12T16:39:55.728Z,1.5385
2023-05-12T16:40:57.657Z,1.2231
2023-05-12T16:41:59.574Z,1.1000
2023-05-12T16:43:01.505Z,1.1538
2023-05-12T16:44:03.428Z,1.1923
2023-05-12T16:45:05.360Z,1.4308
2023-05-12T16:46:07.281Z,1.0615
2023-05-12T16:47:09.186Z,1.0462
2023-05-12T16:48:11.121Z,1.0923
2023-05-12T16:49:13.039Z,1.1846
2023-05-12T16:50:14.959Z,1.2154
2023-05-12T16:51:16.877Z,1.0692
2023-05-12T16:52:18.792Z,1.2077
2023-05-12T16:53:20.712Z,1.0846
2023-05-12T16:54:22.798Z,1.1923
2023-05-12T16:55:24.538Z,1.2846
2023-05-12T16:56:26.512Z,1.0923
2023-05-12T16:57:28.396Z,1.4231
2023-05-12T16:58:30.316Z,1.2692
2023-05-12T16:59:32.240Z,1.1154
2023-05-12T17:00:34.140Z,1.1077
2023-05-12T17:01:36.169Z,1.1769
2023-05-12T17:02:38.058Z,1.0538
2023-05-12T17:03:40.030Z,1.2692
2023-05-12T17:04:41.808Z,1.0154
2023-05-12T17:05:43.730Z,1.1000
2023-05-12T17:06:45.654Z,1.1077
2023-05-12T17:07:47.622Z,1.1846
2023-05-12T17:08:49.518Z,1.1615
2023-05-12T17:09:51.426Z,1.1154
2023-05-12T17:10:53.342Z,1.0692
2023-05-12T17:11:55.251Z,1.1462
2023-05-12T17:12:57.185Z,1.1923
2023-05-12T17:13:59.119Z,1.0692
2023-05-12T17:15:07.638Z,1.0538
2023-05-12T17:16:02.972Z,1.1000
2023-05-12T17:17:04.886Z,1.1000
2023-05-12T17:18:06.884Z,1.0308
2023-05-12T17:20:10.616Z,1.0000
2023-05-12T17:21:12.542Z,1.0846
2023-05-12T17:22:14.466Z,1.0154
2023-05-12T17:23:16.382Z,1.0308
2023-05-12T17:24:18.294Z,1.0538
2023-05-12T17:25:20.426Z,1.1154
2023-05-12T17:26:22.143Z,1.1385
2023-05-12T17:27:24.067Z,1.0923
2023-05-12T17:28:25.982Z,1.1077
2023-05-12T17:29:27.886Z,1.1000
2023-05-12T17:30:29.804Z,1.1538
2023-05-12T17:31:31.790Z,1.0615
2023-05-12T17:32:33.726Z,1.1000
2023-05-12T17:33:35.578Z,1.1462
2023-05-12T17:34:37.496Z,1.1385
2023-05-12T17:35:39.416Z,1.0769
2023-05-12T17:36:41.324Z,1.0462
2023-05-12T17:37:43.281Z,1.0923
2023-05-12T17:38:45.183Z,1.0385
2023-05-12T17:39:47.084Z,1.0538
2023-05-12T17:40:49.012Z,1.0692
2023-05-12T17:41:50.933Z,1.1615
2023-05-12T17:42:52.966Z,1.0923
2023-05-12T17:43:54.770Z,1.0846
2023-05-12T17:44:56.699Z,1.0462
2023-05-12T17:45:58.599Z,1.0538
2023-05-12T17:47:00.542Z,1.0538
2023-05-12T17:48:02.517Z,1.0846
2023-05-12T17:49:04.371Z,1.0154
2023-05-12T17:50:06.295Z,1.0769
2023-05-12T17:51:08.198Z,1.0615
2023-05-12T17:52:10.117Z,1.0538
2023-05-12T17:53:12.033Z,1.0846
2023-05-12T17:54:13.954Z,1.0615
2023-05-12T17:55:15.873Z,1.1000
2023-05-12T17:56:17.809Z,1.1077
2023-05-12T17:57:19.704Z,0.9846
2023-05-12T17:58:21.628Z,1.0769
2023-05-12T17:59:23.551Z,1.1231
2023-05-12T18:00:25.462Z,1.2308
2023-05-12T18:01:27.469Z,1.0231
2023-05-12T18:02:29.452Z,1.1000
2023-05-12T18:03:31.266Z,1.0923
2023-05-12T18:04:33.153Z,1.0385
2023-05-12T18:05:36.506Z,1.0769
2023-05-12T18:06:36.989Z,1.1231
2023-05-12T18:07:38.908Z,1.0923
2023-05-12T18:08:40.834Z,1.1385
2023-05-12T18:09:42.730Z,1.0923
2023-05-12T18:10:44.663Z,1.1077
2023-05-12T18:11:46.587Z,1.1538
2023-05-12T18:12:48.511Z,1.0308
2023-05-12T18:13:50.403Z,1.1154
2023-05-12T18:14:52.337Z,1.1308
2023-05-12T18:15:54.266Z,1.0462
2023-05-12T18:16:56.230Z,1.0769
2023-05-12T18:17:58.118Z,1.0154
2023-05-12T18:19:00.014Z,1.0846
2023-05-12T18:20:01.920Z,1.0462
2023-05-12T18:21:03.857Z,1.0077
2023-05-12T18:22:05.746Z,1.0231
2023-05-12T18:23:07.685Z,1.1000
2023-05-12T18:24:09.576Z,1.1154
2023-05-12T18:25:11.508Z,1.0846
2023-05-12T18:26:13.464Z,1.1077
2023-05-12T18:27:15.362Z,1.0385
2023-05-12T18:28:17.254Z,1.2000
2023-05-12T18:29:19.170Z,1.1385
2023-05-12T18:30:21.113Z,1.0077
2023-05-12T18:31:23.046Z,1.1308
2023-05-12T18:32:26.312Z,1.1615
2023-05-12T18:33:26.857Z,1.0692
2023-05-12T18:34:28.754Z,1.0769
2023-05-12T18:35:30.676Z,1.1077
2023-05-12T18:36:32.620Z,1.1538
2023-05-12T18:37:34.522Z,1.0923
2023-05-12T18:38:36.454Z,1.1692
2023-05-12T18:39:38.372Z,1.1154
2023-05-12T18:40:40.270Z,1.0769
2023-05-12T18:41:42.180Z,1.0615
2023-05-12T18:42:44.158Z,1.1000
2023-05-12T18:43:46.048Z,1.1385
2023-05-12T18:44:47.943Z,1.0846
2023-05-12T18:45:49.871Z,1.0615
2023-05-12T18:46:51.839Z,1.0769
2023-05-12T18:47:53.716Z,1.1385
2023-05-12T18:48:55.646Z,1.1000
2023-05-12T18:49:57.555Z,1.1308
2023-05-12T18:50:59.463Z,1.1077
2023-05-12T18:52:01.399Z,1.0923
2023-05-12T18:53:03.320Z,1.1385
2023-05-12T18:54:05.235Z,1.0923
2023-05-12T18:55:07.176Z,1.0923
2023-05-12T18:56:09.064Z,1.0692
2023-05-12T18:57:10.993Z,1.0462
2023-05-12T18:58:12.898Z,1.0846
2023-05-12T18:59:14.838Z,1.0769
2023-05-12T19:00:16.758Z,1.0917
2023-05-12T19:01:18.738Z,1.0000
2023-05-12T19:02:20.600Z,1.0385
2023-05-12T19:03:22.503Z,1.0846
2023-05-12T19:04:24.431Z,1.0846
2023-05-12T19:05:26.387Z,1.1000
2023-05-12T19:06:28.281Z,1.0769
2023-05-12T19:07:30.216Z,1.0846
2023-05-12T19:08:32.103Z,1.0692
2023-05-12T19:09:34.027Z,1.0846
2023-05-12T19:10:38.611Z,1.0615
2023-05-12T19:11:37.874Z,1.1000
2023-05-12T19:12:39.805Z,1.1077
2023-05-12T19:13:41.718Z,1.0923
2023-05-12T19:14:43.629Z,1.1231
2023-05-12T19:15:45.596Z,1.1846
2023-05-12T19:16:47.544Z,1.1154
2023-05-12T19:17:49.420Z,1.1308
2023-05-12T19:18:51.400Z,1.1308
2023-05-12T19:19:53.235Z,1.1538
2023-05-12T19:20:55.139Z,1.1154
2023-05-12T19:21:57.060Z,1.1231
2023-05-12T19:22:58.998Z,1.1615
2023-05-12T19:24:00.905Z,1.0692
2023-05-12T19:25:02.825Z,1.1385
2023-05-12T19:26:04.724Z,1.1308
2023-05-12T19:27:06.640Z,1.0846
2023-05-12T19:28:08.607Z,1.0846
2023-05-12T19:29:10.514Z,1.0692
2023-05-12T19:30:12.415Z,1.1769
2023-05-12T19:31:14.323Z,1.1077
2023-05-12T19:32:16.339Z,1.0769
2023-05-12T19:33:18.199Z,1.0538
2023-05-12T19:34:20.100Z,1.1154
2023-05-12T19:35:22.205Z,1.1154
2023-05-12T19:36:23.925Z,1.1000
2023-05-12T19:37:25.849Z,1.1000
2023-05-12T19:38:27.741Z,1.1077
2023-05-12T19:39:29.677Z,1.0769
2023-05-12T19:40:31.711Z,1.1231
2023-05-12T19:41:33.510Z,1.1077
2023-05-12T19:42:35.414Z,1.1231
2023-05-12T19:43:37.337Z,1.1231
2023-05-12T19:44:39.285Z,1.1231
2023-05-12T19:45:41.200Z,1.0846
2023-05-12T19:46:43.103Z,1.0923
2023-05-12T19:47:45.020Z,1.0692
2023-05-12T19:48:46.922Z,1.1077
2023-05-12T19:49:48.854Z,1.1615
2023-05-12T19:50:50.786Z,1.1154
2023-05-12T19:51:52.689Z,1.1538
2023-05-12T19:52:54.606Z,1.0846
2023-05-12T19:53:56.605Z,1.0846
2023-05-12T19:54:58.511Z,1.1154
2023-05-12T19:56:00.456Z,1.1769
2023-05-12T19:57:02.385Z,1.1000
2023-05-12T19:58:04.291Z,1.1308
2023-05-12T19:59:06.207Z,1.1077
2023-05-12T20:00:08.120Z,1.1769
2023-05-12T20:01:10.054Z,1.1769
2023-05-12T20:02:11.970Z,1.1077
2023-05-12T20:03:13.918Z,1.1000
2023-05-12T20:04:15.790Z,1.1231
2023-05-12T20:05:17.765Z,1.0846
2023-05-12T20:06:19.621Z,1.1231
2023-05-12T20:07:21.548Z,1.1538
2023-05-12T20:08:23.475Z,1.1308
2023-05-12T20:09:25.372Z,1.1462
2023-05-12T20:10:27.302Z,1.1231
2023-05-12T20:11:29.200Z,1.1000
2023-05-12T20:12:31.140Z,1.1154
2023-05-12T20:13:33.056Z,1.1769
2023-05-12T20:14:34.978Z,1.2154
2023-05-12T20:15:36.874Z,1.1000
2023-05-12T20:16:38.820Z,1.0846
2023-05-12T20:17:40.803Z,1.1615
2023-05-12T20:18:42.676Z,1.1692
2023-05-12T20:19:44.556Z,1.1154
2023-05-12T20:20:46.461Z,1.1000
2023-05-12T20:21:48.382Z,1.1769
2023-05-12T20:22:50.308Z,1.1154
2023-05-12T20:23:52.230Z,1.1077
2023-05-12T20:24:54.149Z,1.1231
2023-05-12T20:25:56.082Z,1.1385
2023-05-12T20:26:57.966Z,1.2308
2023-05-12T20:27:59.919Z,1.2000
2023-05-12T20:29:01.835Z,1.1462
2023-05-12T20:30:03.736Z,1.1231
2023-05-12T20:31:05.778Z,1.1000
2023-05-12T20:32:07.570Z,1.1231
2023-05-12T20:33:09.500Z,1.1538
2023-05-12T20:34:11.405Z,1.1692
2023-05-12T20:35:13.327Z,1.1231
2023-05-12T20:36:15.224Z,1.1615
2023-05-12T20:37:17.156Z,1.1231
2023-05-12T20:38:19.066Z,1.1000
2023-05-12T20:39:20.983Z,1.1462
2023-05-12T20:40:22.903Z,1.1077
2023-05-12T20:41:24.806Z,1.1308
2023-05-12T20:42:26.733Z,1.0846
2023-05-12T20:43:28.650Z,1.1769
2023-05-12T20:44:30.571Z,1.1154
2023-05-12T20:45:32.473Z,1.1538
2023-05-12T20:46:36.437Z,1.0923
2023-05-12T20:47:36.456Z,1.2077
2023-05-12T20:48:38.229Z,1.2077
2023-05-12T20:49:40.149Z,1.1692
2023-05-12T20:50:42.084Z,1.1692
2023-05-12T20:51:43.967Z,1.1154
2023-05-12T20:52:45.904Z,1.1538
2023-05-12T20:53:47.794Z,1.1308
2023-05-12T20:54:49.718Z,1.1923
2023-05-12T20:55:51.633Z,1.1538
2023-05-12T20:56:53.562Z,1.1231
2023-05-12T20:57:55.471Z,1.0385
2023-05-12T20:58:57.377Z,1.1000
2023-05-12T20:59:59.298Z,1.1692
2023-05-12T21:01:01.229Z,1.1385
2023-05-12T21:02:03.207Z,1.1308
2023-05-12T21:03:12.216Z,1.1923
2023-05-12T21:04:16.527Z,1.1857
2023-05-12T21:05:18.620Z,1.1923
2023-05-12T21:06:20.348Z,1.1385
2023-05-12T21:07:22.262Z,1.1385
2023-05-12T21:08:24.159Z,1.2154
2023-05-12T21:09:26.104Z,1.1615
2023-05-12T21:10:28.002Z,1.1615
2023-05-12T21:11:29.905Z,1.1846
2023-05-12T21:12:31.835Z,1.1154
2023-05-12T21:13:33.772Z,1.1462
2023-05-12T21:14:35.670Z,1.1692
2023-05-12T21:15:37.581Z,1.1615
2023-05-12T21:16:39.634Z,1.2154
2023-05-12T21:17:41.566Z,1.1692
2023-05-12T21:18:43.385Z,1.1385
2023-05-12T21:19:45.276Z,1.1692
2023-05-12T21:20:47.240Z,1.2308
2023-05-12T21:21:49.097Z,1.1769
2023-05-12T21:22:51.025Z,1.1462
2023-05-12T21:23:52.996Z,1.1385
2023-05-12T21:24:54.850Z,1.1385
2023-05-12T21:25:56.770Z,1.1769
2023-05-12T21:26:58.704Z,1.2000
2023-05-12T21:28:00.605Z,1.1615
2023-05-12T21:29:02.572Z,1.1462
2023-05-12T21:30:04.457Z,1.1769
2023-05-12T21:31:06.355Z,1.1462
2023-05-12T21:32:08.599Z,1.1923
2023-05-12T21:33:10.286Z,1.1462
2023-05-12T21:34:12.178Z,1.2231
2023-05-12T21:35:14.033Z,1.1846
2023-05-12T21:36:15.965Z,1.1923
2023-05-12T21:37:17.869Z,1.1308
2023-05-12T21:38:19.804Z,1.1308
2023-05-12T21:39:21.728Z,1.1538
2023-05-12T21:40:23.706Z,1.2538
2023-05-12T21:41:25.548Z,1.2077
2023-05-12T21:42:27.496Z,1.2077
2023-05-12T21:43:29.406Z,1.1692
2023-05-12T21:44:31.332Z,1.2231
2023-05-12T21:45:33.244Z,1.2154
2023-05-12T21:46:35.271Z,1.2231
2023-05-12T21:47:37.114Z,1.2308
2023-05-12T21:48:38.984Z,1.2154
2023-05-12T21:49:40.918Z,1.2154
2023-05-12T21:50:42.835Z,1.2077
2023-05-12T21:51:44.751Z,1.2000
2023-05-12T21:52:46.705Z,1.1462
2023-05-12T21:53:48.593Z,1.2077
2023-05-12T21:54:50.525Z,1.2000
2023-05-12T21:55:52.428Z,1.1923
2023-05-12T21:56:54.346Z,1.1846
2023-05-12T21:57:56.253Z,1.2000
2023-05-12T21:58:58.218Z,1.2769
2023-05-12T22:00:00.126Z,1.1538
2023-05-12T22:01:02.021Z,1.1923
2023-05-12T22:02:03.948Z,1.2769
2023-05-12T22:03:05.896Z,1.2769
2023-05-12T22:04:07.817Z,1.2462
2023-05-12T22:05:09.758Z,1.2308
2023-05-12T22:06:11.623Z,1.1538
2023-05-12T22:07:13.517Z,1.1846
2023-05-12T22:08:15.447Z,1.2231
2023-05-12T22:09:17.361Z,1.2077
2023-05-12T22:10:19.452Z,1.2077
2023-05-12T22:11:21.229Z,1.2538
2023-05-12T22:12:23.116Z,1.2692
2023-05-12T22:13:25.023Z,1.1769
2023-05-12T22:14:26.936Z,1.2077
2023-05-12T22:15:28.870Z,1.2692
2023-05-12T22:16:40.680Z,1.2615
2023-05-12T22:17:32.750Z,1.2500
2023-05-12T22:18:34.679Z,1.2385
2023-05-12T22:19:36.536Z,1.1923
2023-05-12T22:20:38.453Z,1.1923
2023-05-12T22:21:40.379Z,1.2000
2023-05-12T22:22:42.339Z,1.2538
2023-05-12T22:23:44.220Z,1.2538
2023-05-12T22:24:46.134Z,1.3000
2023-05-12T22:25:48.032Z,1.2154
2023-05-12T22:26:49.970Z,1.2000
2023-05-12T22:27:51.871Z,1.2538
2023-05-12T22:28:53.836Z,1.2692
2023-05-12T22:29:55.721Z,1.2385
2023-05-12T22:30:57.665Z,1.2000
2023-05-12T22:31:59.551Z,1.1923
2023-05-12T22:33:01.584Z,1.2538
2023-05-12T22:34:03.384Z,1.2077
2023-05-12T22:35:05.339Z,1.1846
2023-05-12T22:36:07.243Z,1.2462
2023-05-12T22:37:09.146Z,1.1769
2023-05-12T22:38:11.094Z,1.2000
2023-05-12T22:39:13.001Z,1.1846
2023-05-12T22:40:14.905Z,1.2000
2023-05-12T22:41:16.825Z,1.2615
2023-05-12T22:42:18.763Z,1.1846
2023-05-12T22:43:20.659Z,1.1692
2023-05-12T22:44:22.596Z,1.2231
2023-05-12T22:45:24.520Z,1.2000
2023-05-12T22:46:26.480Z,1.1615
2023-05-12T22:47:28.348Z,1.2000
2023-05-12T22:48:32.099Z,1.2077
2023-05-12T22:49:32.191Z,1.2000
2023-05-12T22:50:34.098Z,1.2154
2023-05-12T22:51:36.025Z,1.2692
2023-05-12T22:52:37.944Z,1.1692
2023-05-12T22:53:39.864Z,1.2308
2023-05-12T22:54:41.781Z,1.3077
2023-05-12T22:55:43.701Z,1.2231
2023-05-12T22:56:45.629Z,1.2923
2023-05-12T22:57:47.538Z,1.2385
2023-05-12T22:58:49.470Z,1.1923
2023-05-12T22:59:51.371Z,1.2000
2023-05-12T23:00:53.330Z,1.2308
2023-05-12T23:01:55.221Z,1.2385
2023-05-12T23:02:57.191Z,1.1846
2023-05-12T23:03:59.068Z,1.2538
2023-05-12T23:05:00.963Z,1.2538
2023-05-12T23:06:02.908Z,1.2615
2023-05-12T23:07:05.903Z,1.2846
2023-05-12T23:08:06.764Z,1.2769
2023-05-12T23:09:08.635Z,1.2615
2023-05-12T23:10:10.578Z,1.2692
2023-05-12T23:11:12.491Z,1.3615
2023-05-12T23:12:14.404Z,1.2462
2023-05-12T23:13:16.370Z,1.2231
2023-05-12T23:14:18.288Z,1.2769
2023-05-12T23:15:20.171Z,1.2231
2023-05-12T23:16:22.093Z,1.2000
2023-05-12T23:17:23.994Z,1.2462
2023-05-12T23:18:25.946Z,1.1923
2023-05-12T23:19:27.837Z,1.2308
2023-05-12T23:20:29.752Z,1.2923
2023-05-12T23:21:31.694Z,1.2692
2023-05-12T23:22:33.605Z,1.2308
2023-05-12T23:23:35.520Z,1.2385
2023-05-12T23:24:37.444Z,1.2846
2023-05-12T23:25:39.371Z,1.2692
2023-05-12T23:26:41.262Z,1.2231
2023-05-12T23:27:43.199Z,1.2692
2023-05-12T23:28:45.473Z,1.2692
2023-05-12T23:29:47.024Z,1.2154
2023-05-12T23:30:48.949Z,1.2077
2023-05-12T23:31:50.930Z,1.2077
2023-05-12T23:32:52.950Z,1.1923
2023-05-12T23:33:54.782Z,1.2231
2023-05-12T23:34:56.632Z,1.3000
2023-05-12T23:35:58.579Z,1.2615
2023-05-12T23:37:00.462Z,1.3000
2023-05-12T23:38:02.398Z,1.2692
2023-05-12T23:39:04.312Z,1.3077
2023-05-12T23:40:06.213Z,1.3769
2023-05-12T23:41:08.142Z,1.2615
2023-05-12T23:42:10.066Z,1.2846
2023-05-12T23:43:11.969Z,1.2846
2023-05-12T23:44:13.898Z,1.2923
2023-05-12T23:45:15.844Z,1.2462
2023-05-12T23:46:17.786Z,1.2308
2023-05-12T23:47:19.650Z,1.2462
2023-05-12T23:48:21.580Z,1.2923
2023-05-12T23:49:23.529Z,1.2231
2023-05-12T23:50:25.412Z,1.2615
2023-05-12T23:51:27.348Z,1.2231
2023-05-12T23:52:29.257Z,1.2154
2023-05-12T23:53:31.209Z,1.3077
2023-05-12T23:54:33.107Z,1.2462
2023-05-12T23:55:35.017Z,1.2231
2023-05-12T23:56:36.973Z,1.2308
2023-05-12T23:57:38.933Z,1.2769
2023-05-12T23:58:40.854Z,1.2846
2023-05-12T23:59:42.754Z,1.2692
